createdAt,value
2019-04-30T00:01:17.393Z,35.68
2019-04-30T00:03:50.462Z,30.80
2019-04-30T00:06:16.564Z,31.25
2019-04-30T00:08:45.352Z,30.92
2019-04-30T00:11:17.947Z,28.57
2019-04-30T00:13:45.931Z,32.70
2019-04-30T00:16:15.381Z,31.42
2019-04-30T00:18:55.632Z,31.12
2019-04-30T00:21:18.452Z,32.48
2019-04-30T00:23:45.927Z,33.35
2019-04-30T00:26:17.014Z,31.60
2019-04-30T00:28:47.667Z,32.23
2019-04-30T00:31:17.369Z,30.12
2019-04-30T00:33:46.236Z,33.60
2019-04-30T00:36:14.824Z,31.10
2019-04-30T00:38:45.107Z,33.25
2019-04-30T00:41:15.453Z,34.18
2019-04-30T00:43:49.249Z,30.80
2019-04-30T00:46:17.257Z,31.42
2019-04-30T00:48:45.616Z,31.50
2019-04-30T00:51:21.215Z,37.58
2019-04-30T00:53:51.095Z,30.90
2019-04-30T00:56:15.812Z,30.27
2019-04-30T00:58:45.359Z,29.20
2019-04-30T01:01:15.761Z,33.70
2019-04-30T01:03:51.918Z,29.80
2019-04-30T01:06:26.855Z,31.30
2019-04-30T01:08:51.570Z,33.45
2019-04-30T01:11:20.033Z,32.08
2019-04-30T01:13:51.026Z,31.27
2019-04-30T01:16:19.596Z,31.75
2019-04-30T01:18:49.143Z,31.10
2019-04-30T01:21:18.528Z,31.55
2019-04-30T01:23:53.043Z,29.32
2019-04-30T01:26:18.778Z,31.82
2019-04-30T01:28:49.375Z,30.52
2019-04-30T01:31:18.758Z,30.15
2019-04-30T01:33:48.909Z,30.43
2019-04-30T01:36:19.181Z,33.50
2019-04-30T01:38:51.054Z,33.58
2019-04-30T01:41:22.023Z,32.03
2019-04-30T01:43:48.785Z,32.35
2019-04-30T01:46:19.231Z,29.30
2019-04-30T01:48:51.873Z,35.92
2019-04-30T01:51:21.733Z,31.70
2019-04-30T01:53:49.124Z,30.37
2019-04-30T01:56:33.965Z,33.28
2019-04-30T01:59:07.034Z,29.05
2019-04-30T02:01:38.999Z,32.03
2019-04-30T02:04:08.520Z,30.72
2019-04-30T02:06:37.104Z,31.90
2019-04-30T02:09:06.274Z,31.57
2019-04-30T02:11:34.742Z,34.03
2019-04-30T02:14:03.758Z,30.97
2019-04-30T02:16:32.648Z,33.13
2019-04-30T02:19:01.081Z,30.85
2019-04-30T02:21:30.330Z,31.40
2019-04-30T02:24:00.046Z,28.52
2019-04-30T02:26:28.842Z,31.77
2019-04-30T02:28:59.342Z,29.77
2019-04-30T02:31:30.711Z,32.70
2019-04-30T02:34:02.469Z,30.55
2019-04-30T02:36:32.896Z,33.85
2019-04-30T02:39:02.755Z,29.42
2019-04-30T02:41:31.579Z,31.55
2019-04-30T02:44:02.574Z,34.65
2019-04-30T02:46:32.284Z,32.42
2019-04-30T02:49:02.846Z,30.48
2019-04-30T02:51:33.847Z,30.68
2019-04-30T02:54:11.313Z,30.57
2019-04-30T02:56:41.318Z,33.48
2019-04-30T02:59:10.498Z,35.78
2019-04-30T03:01:40.275Z,33.95
2019-04-30T03:04:10.036Z,33.50
2019-04-30T03:06:40.142Z,35.08
2019-04-30T03:09:10.366Z,34.58
2019-04-30T03:11:40.690Z,33.25
2019-04-30T03:14:10.599Z,35.73
2019-04-30T03:16:41.820Z,33.20
2019-04-30T03:19:19.630Z,32.05
2019-04-30T03:21:50.358Z,31.90
2019-04-30T03:24:20.186Z,33.78
2019-04-30T03:26:49.961Z,33.50
2019-04-30T03:29:23.436Z,31.05
2019-04-30T03:31:52.354Z,36.85
2019-04-30T03:34:25.143Z,30.40
2019-04-30T03:36:50.401Z,36.70
2019-04-30T03:39:19.889Z,36.77
2019-04-30T03:41:50.130Z,33.23
2019-04-30T03:44:25.613Z,35.50
2019-04-30T03:46:49.928Z,33.05
2019-04-30T03:49:20.208Z,30.45
2019-04-30T03:51:49.895Z,33.08
2019-04-30T03:54:19.321Z,34.83
2019-04-30T03:56:50.241Z,34.35
2019-04-30T03:59:19.995Z,30.68
2019-04-30T04:01:59.608Z,29.55
2019-04-30T04:04:39.638Z,29.07
2019-04-30T04:07:13.318Z,31.80
2019-04-30T04:09:59.972Z,31.80
2019-04-30T04:12:30.427Z,32.10
2019-04-30T04:15:20.014Z,34.70
2019-04-30T04:17:50.436Z,31.73
2019-04-30T04:20:20.313Z,33.28
2019-04-30T04:22:49.816Z,31.12
2019-04-30T04:25:20.370Z,32.70
2019-04-30T04:27:50.869Z,35.60
2019-04-30T04:30:20.566Z,31.48
2019-04-30T04:32:50.165Z,34.75
2019-04-30T04:35:19.746Z,33.58
2019-04-30T04:37:49.780Z,30.70
2019-04-30T04:40:20.986Z,30.68
2019-04-30T04:42:49.458Z,32.65
2019-04-30T04:45:19.805Z,34.20
2019-04-30T04:47:50.407Z,32.67
2019-04-30T04:50:20.066Z,32.48
2019-04-30T04:52:49.568Z,35.60
2019-04-30T04:55:21.760Z,34.08
2019-04-30T04:57:50.025Z,32.25
2019-04-30T05:00:19.564Z,31.57
2019-04-30T05:03:05.916Z,33.50
2019-04-30T05:05:34.706Z,33.23
2019-04-30T05:08:03.614Z,30.80
2019-04-30T05:10:32.416Z,37.33
2019-04-30T05:13:00.922Z,31.75
2019-04-30T05:15:29.750Z,41.90
2019-04-30T05:17:59.198Z,29.25
2019-04-30T05:20:29.203Z,28.10
2019-04-30T05:22:58.523Z,34.25
2019-04-30T05:25:29.475Z,27.95
2019-04-30T05:27:58.690Z,33.42
2019-04-30T05:30:29.367Z,35.35
2019-04-30T05:32:58.863Z,27.45
2019-04-30T05:35:28.381Z,30.35
2019-04-30T05:37:59.282Z,33.30
2019-04-30T05:40:28.747Z,30.82
2019-04-30T05:42:57.669Z,32.90
2019-04-30T05:45:26.454Z,32.73
2019-04-30T05:47:55.237Z,33.28
2019-04-30T05:50:23.705Z,40.17
2019-04-30T05:52:52.619Z,32.80
2019-04-30T05:55:21.489Z,30.92
2019-04-30T05:57:56.069Z,31.07
2019-04-30T06:00:21.592Z,27.30
2019-04-30T06:02:50.035Z,27.17
2019-04-30T06:05:19.024Z,29.87
2019-04-30T06:07:51.626Z,25.68
2019-04-30T06:10:29.424Z,34.15
2019-04-30T06:13:00.057Z,29.63
2019-04-30T06:15:36.187Z,33.05
2019-04-30T06:18:12.953Z,38.40
2019-04-30T06:20:35.277Z,35.92
2019-04-30T06:23:03.711Z,36.93
2019-04-30T06:25:45.849Z,37.13
2019-04-30T06:28:03.193Z,29.48
2019-04-30T06:30:32.933Z,29.77
2019-04-30T06:33:02.375Z,31.62
2019-04-30T06:35:31.455Z,26.15
2019-04-30T06:38:00.335Z,32.90
2019-04-30T06:40:29.337Z,32.93
2019-04-30T06:43:00.677Z,36.13
2019-04-30T06:45:31.010Z,28.60
2019-04-30T06:48:02.403Z,28.17
2019-04-30T06:50:31.323Z,29.00
2019-04-30T06:53:01.596Z,23.98
2019-04-30T06:55:30.922Z,27.32
2019-04-30T06:58:11.454Z,25.68
2019-04-30T07:00:35.567Z,26.03
2019-04-30T07:03:04.882Z,25.30
2019-04-30T07:05:33.059Z,24.57
2019-04-30T07:08:11.918Z,34.80
2019-04-30T07:10:41.445Z,24.40
2019-04-30T07:15:58.566Z,26.13
2019-04-30T07:18:28.793Z,22.43
2019-04-30T07:20:58.471Z,22.40
2019-04-30T07:23:28.526Z,23.87
2019-04-30T07:25:58.983Z,23.30
2019-04-30T07:28:42.736Z,24.10
2019-04-30T07:31:10.186Z,24.40
2019-04-30T07:33:29.429Z,24.03
2019-04-30T07:36:01.446Z,24.20
2019-04-30T07:38:29.457Z,26.43
2019-04-30T07:40:59.142Z,28.43
2019-04-30T07:43:28.917Z,24.10
2019-04-30T07:45:59.684Z,26.67
2019-04-30T07:48:29.689Z,23.50
2019-04-30T07:50:59.193Z,25.20
2019-04-30T07:53:27.986Z,25.77
2019-04-30T07:55:56.206Z,24.27
2019-04-30T07:58:24.472Z,26.37
2019-04-30T08:00:56.277Z,28.33
2019-04-30T08:03:40.048Z,26.00
2019-04-30T08:06:10.093Z,24.70
2019-04-30T08:08:40.958Z,24.50
2019-04-30T08:11:09.311Z,27.53
2019-04-30T08:13:40.753Z,24.90
2019-04-30T08:16:09.767Z,24.93
2019-04-30T08:18:39.233Z,27.93
2019-04-30T08:21:09.433Z,24.07
2019-04-30T08:23:39.579Z,24.77
2019-04-30T08:26:08.842Z,25.43
2019-04-30T08:28:38.679Z,26.17
2019-04-30T08:31:08.808Z,25.70
2019-04-30T08:33:37.282Z,25.73
2019-04-30T08:36:05.950Z,25.90
2019-04-30T08:38:34.490Z,25.50
2019-04-30T08:41:02.641Z,25.80
2019-04-30T08:43:31.162Z,23.63
2019-04-30T08:45:59.666Z,24.90
2019-04-30T08:48:42.228Z,25.23
2019-04-30T08:50:59.157Z,24.23
2019-04-30T08:53:32.531Z,24.67
2019-04-30T08:55:59.099Z,29.67
2019-04-30T08:58:29.239Z,25.53
2019-04-30T09:00:58.739Z,23.63
2019-04-30T09:03:29.490Z,23.33
2019-04-30T09:05:59.273Z,26.13
2019-04-30T09:08:29.470Z,23.50
2019-04-30T09:10:59.573Z,24.23
2019-04-30T09:13:28.769Z,22.23
2019-04-30T09:15:59.269Z,24.97
2019-04-30T09:18:29.018Z,21.47
2019-04-30T09:21:05.501Z,23.30
2019-04-30T09:23:43.015Z,22.20
2019-04-30T09:25:58.592Z,23.87
2019-04-30T09:28:26.985Z,24.30
2019-04-30T09:30:58.688Z,20.20
2019-04-30T09:33:26.290Z,21.60
2019-04-30T09:35:54.812Z,20.20
2019-04-30T09:38:23.306Z,23.13
2019-04-30T09:40:51.481Z,21.40
2019-04-30T09:43:19.975Z,20.33
2019-04-30T09:45:49.747Z,19.10
2019-04-30T09:48:19.070Z,22.27
2019-04-30T09:50:50.117Z,21.47
2019-04-30T09:53:19.479Z,19.87
2019-04-30T09:55:49.632Z,20.03
2019-04-30T09:58:21.048Z,19.40
2019-04-30T10:00:50.194Z,20.57
2019-04-30T10:03:20.181Z,21.20
2019-04-30T10:05:49.210Z,18.43
2019-04-30T10:08:18.898Z,19.20
2019-04-30T10:10:52.580Z,18.87
2019-04-30T10:13:21.070Z,17.87
2019-04-30T10:15:51.225Z,18.83
2019-04-30T10:18:19.576Z,22.00
2019-04-30T10:20:47.825Z,17.33
2019-04-30T10:23:16.394Z,17.50
2019-04-30T10:25:44.652Z,19.27
2019-04-30T10:28:12.815Z,17.40
2019-04-30T10:30:41.392Z,20.07
2019-04-30T10:33:10.130Z,19.37
2019-04-30T10:35:38.826Z,20.23
2019-04-30T10:38:09.704Z,17.17
2019-04-30T10:40:39.006Z,17.00
2019-04-30T10:43:08.926Z,16.73
2019-04-30T10:45:38.977Z,18.43
2019-04-30T10:48:07.656Z,19.70
2019-04-30T10:50:36.273Z,18.30
2019-04-30T10:53:04.925Z,18.33
2019-04-30T10:55:33.409Z,15.70
2019-04-30T10:58:01.926Z,13.33
2019-04-30T11:00:39.057Z,15.40
2019-04-30T11:03:19.040Z,15.50
2019-04-30T11:05:40.987Z,16.77
2019-04-30T11:08:08.922Z,16.73
2019-04-30T11:10:39.798Z,18.70
2019-04-30T11:13:07.938Z,16.50
2019-04-30T11:15:36.500Z,15.13
2019-04-30T11:18:05.330Z,16.80
2019-04-30T11:20:34.957Z,16.33
2019-04-30T11:23:13.722Z,16.50
2019-04-30T11:25:34.635Z,14.80
2019-04-30T11:28:04.143Z,16.03
2019-04-30T11:30:33.309Z,15.40
2019-04-30T11:33:02.060Z,14.17
2019-04-30T11:35:30.656Z,15.80
2019-04-30T11:37:59.349Z,17.80
2019-04-30T11:40:36.627Z,18.10
2019-04-30T11:43:00.948Z,16.90
2019-04-30T11:45:48.680Z,16.37
2019-04-30T11:48:19.135Z,14.73
2019-04-30T11:50:49.557Z,20.60
2019-04-30T11:53:25.326Z,16.37
2019-04-30T11:55:49.154Z,15.60
2019-04-30T11:58:21.614Z,14.93
2019-04-30T12:00:49.484Z,17.00
2019-04-30T12:03:19.134Z,16.67
2019-04-30T12:05:49.125Z,15.70
2019-04-30T12:08:22.244Z,14.90
2019-04-30T12:10:55.602Z,14.50
2019-04-30T12:13:25.511Z,15.10
2019-04-30T12:15:55.483Z,14.30
2019-04-30T12:18:24.235Z,13.63
2019-04-30T12:20:52.919Z,13.27
2019-04-30T12:23:21.529Z,12.53
2019-04-30T12:25:50.152Z,14.57
2019-04-30T12:28:19.715Z,12.70
2019-04-30T12:30:48.988Z,13.73
2019-04-30T12:33:19.153Z,13.07
2019-04-30T12:35:49.225Z,14.03
2019-04-30T12:38:19.175Z,13.50
2019-04-30T12:40:48.075Z,12.50
2019-04-30T12:43:16.610Z,14.70
2019-04-30T12:45:45.151Z,12.70
2019-04-30T12:48:21.196Z,14.17
2019-04-30T12:50:51.324Z,13.50
2019-04-30T12:53:24.301Z,12.33
2019-04-30T12:56:00.682Z,13.30
2019-04-30T12:58:29.886Z,13.00
2019-04-30T13:00:59.192Z,12.37
2019-04-30T13:03:30.672Z,12.28
2019-04-30T13:06:01.265Z,11.85
2019-04-30T13:08:31.168Z,12.63
2019-04-30T13:11:01.043Z,12.90
2019-04-30T13:13:32.065Z,13.15
2019-04-30T13:16:00.709Z,12.50
2019-04-30T13:18:29.563Z,12.47
2019-04-30T13:20:58.864Z,11.70
2019-04-30T13:23:29.684Z,12.17
2019-04-30T13:25:58.453Z,11.50
2019-04-30T13:28:46.146Z,12.83
2019-04-30T13:31:14.697Z,12.07
2019-04-30T13:33:45.453Z,11.83
2019-04-30T13:36:14.494Z,11.95
2019-04-30T13:38:50.112Z,12.60
2019-04-30T13:41:30.455Z,11.15
2019-04-30T13:44:00.458Z,10.43
2019-04-30T13:46:29.167Z,11.22
2019-04-30T13:48:57.772Z,14.30
2019-04-30T13:51:26.291Z,13.43
2019-04-30T13:53:54.633Z,13.20
2019-04-30T13:56:22.879Z,12.25
2019-04-30T13:58:51.959Z,12.65
2019-04-30T14:01:21.478Z,12.25
2019-04-30T14:03:54.451Z,13.30
2019-04-30T14:06:28.939Z,10.95
2019-04-30T14:08:59.734Z,10.85
2019-04-30T14:11:28.290Z,11.85
2019-04-30T14:13:56.989Z,12.75
2019-04-30T14:16:25.515Z,12.33
2019-04-30T14:18:54.095Z,11.10
2019-04-30T14:21:32.227Z,12.47
2019-04-30T14:23:52.952Z,11.33
2019-04-30T14:26:21.609Z,11.78
2019-04-30T14:28:50.103Z,11.10
2019-04-30T14:31:20.741Z,11.50
2019-04-30T14:33:48.990Z,12.63
2019-04-30T14:36:19.307Z,12.53
2019-04-30T14:38:48.887Z,12.73
2019-04-30T14:41:17.928Z,12.90
2019-04-30T14:43:51.889Z,14.38
2019-04-30T14:46:22.522Z,13.85
2019-04-30T14:48:53.782Z,14.90
2019-04-30T14:51:22.935Z,12.65
2019-04-30T14:54:09.574Z,12.58
2019-04-30T14:56:49.377Z,12.50
2019-04-30T14:59:28.971Z,13.70
2019-04-30T15:02:02.390Z,13.62
2019-04-30T15:04:30.906Z,14.45
2019-04-30T15:06:59.535Z,14.13
2019-04-30T15:09:28.020Z,14.05
2019-04-30T15:11:58.548Z,15.30
2019-04-30T15:14:26.722Z,13.00
2019-04-30T15:16:55.310Z,13.15
2019-04-30T15:19:23.864Z,14.03
2019-04-30T15:21:52.414Z,14.20
2019-04-30T15:24:22.675Z,13.62
2019-04-30T15:26:57.766Z,14.65
2019-04-30T15:29:21.406Z,13.88
2019-04-30T15:31:49.988Z,13.62
2019-04-30T15:34:19.221Z,14.85
2019-04-30T15:36:49.282Z,14.65
2019-04-30T15:39:25.469Z,13.48
2019-04-30T15:41:53.989Z,13.98
2019-04-30T15:44:22.463Z,13.43
2019-04-30T15:46:50.973Z,13.23
2019-04-30T15:49:22.393Z,13.80
2019-04-30T15:51:51.726Z,12.85
2019-04-30T15:54:21.134Z,14.70
2019-04-30T15:56:50.368Z,14.95
2019-04-30T15:59:35.757Z,14.58
2019-04-30T16:02:09.806Z,14.55
2019-04-30T16:04:49.674Z,15.03
2019-04-30T16:07:19.608Z,14.60
2019-04-30T16:09:53.341Z,14.10
2019-04-30T16:12:24.288Z,14.73
2019-04-30T16:14:53.436Z,14.60
2019-04-30T16:17:26.635Z,12.28
2019-04-30T16:19:55.715Z,12.30
2019-04-30T16:22:24.816Z,12.70
2019-04-30T16:24:54.690Z,10.70
2019-04-30T16:27:23.439Z,10.80
2019-04-30T16:29:51.947Z,11.30
2019-04-30T16:32:21.709Z,11.30
2019-04-30T16:34:50.213Z,10.87
2019-04-30T16:37:20.214Z,10.57
2019-04-30T16:39:48.864Z,10.27
2019-04-30T16:42:19.015Z,9.67
2019-04-30T16:44:47.736Z,9.10
2019-04-30T16:47:17.126Z,9.57
2019-04-30T16:49:45.846Z,10.27
2019-04-30T16:52:14.378Z,11.70
2019-04-30T16:54:42.959Z,11.50
2019-04-30T16:57:11.522Z,11.70
2019-04-30T16:59:41.788Z,11.07
2019-04-30T17:02:11.759Z,10.73
2019-04-30T17:04:44.422Z,10.63
2019-04-30T17:07:28.770Z,11.77
2019-04-30T17:10:09.070Z,10.60
2019-04-30T17:12:45.081Z,11.80
2019-04-30T17:15:15.451Z,11.10
2019-04-30T17:17:44.004Z,10.63
2019-04-30T17:20:13.071Z,11.63
2019-04-30T17:22:41.770Z,12.10
2019-04-30T17:25:10.640Z,12.30
2019-04-30T17:27:39.564Z,13.10
2019-04-30T17:30:11.088Z,13.50
2019-04-30T17:32:39.533Z,14.23
2019-04-30T17:35:09.104Z,14.17
2019-04-30T17:37:37.772Z,13.37
2019-04-30T17:40:09.448Z,14.80
2019-04-30T17:42:38.142Z,15.70
2019-04-30T17:45:11.229Z,15.13
2019-04-30T17:47:39.884Z,15.87
2019-04-30T17:50:10.316Z,15.30
2019-04-30T17:52:38.872Z,14.87
2019-04-30T17:55:09.632Z,15.43
2019-04-30T17:57:40.064Z,14.83
2019-04-30T18:00:18.803Z,14.43
2019-04-30T18:02:40.381Z,15.20
2019-04-30T18:05:11.086Z,15.57
2019-04-30T18:07:39.512Z,16.10
2019-04-30T18:10:10.128Z,14.43
2019-04-30T18:12:39.238Z,13.67
2019-04-30T18:15:10.698Z,14.73
2019-04-30T18:17:39.279Z,15.00
2019-04-30T18:20:12.225Z,15.60
2019-04-30T18:22:45.252Z,14.83
2019-04-30T18:25:18.113Z,15.70
2019-04-30T18:27:54.313Z,16.30
2019-04-30T18:30:36.743Z,16.40
2019-04-30T18:33:06.337Z,17.03
2019-04-30T18:35:35.041Z,17.30
2019-04-30T18:38:03.309Z,18.47
2019-04-30T18:40:31.891Z,17.13
2019-04-30T18:43:00.656Z,17.27
2019-04-30T18:45:29.329Z,18.30
2019-04-30T18:47:59.488Z,15.83
2019-04-30T18:50:28.088Z,16.73
2019-04-30T18:52:58.737Z,17.07
2019-04-30T18:55:27.523Z,17.27
2019-04-30T18:57:57.118Z,17.13
2019-04-30T19:00:36.965Z,19.27
2019-04-30T19:03:05.755Z,17.77
2019-04-30T19:05:34.712Z,17.30
2019-04-30T19:08:04.930Z,18.50
2019-04-30T19:10:37.801Z,17.43
2019-04-30T19:13:10.471Z,19.67
2019-04-30T19:16:25.859Z,19.20
2019-04-30T19:18:31.647Z,20.00
2019-04-30T19:21:01.937Z,20.93
2019-04-30T19:23:30.438Z,21.27
2019-04-30T19:25:59.670Z,21.77
2019-04-30T19:28:28.683Z,20.47
2019-04-30T19:30:58.849Z,19.60
2019-04-30T19:33:29.372Z,19.77
2019-04-30T19:35:58.604Z,21.37
2019-04-30T19:38:28.739Z,22.17
2019-04-30T19:40:57.250Z,22.33
2019-04-30T19:43:25.771Z,21.50
2019-04-30T19:45:54.276Z,20.63
2019-04-30T19:48:22.866Z,20.50
2019-04-30T19:50:51.362Z,20.37
2019-04-30T19:53:22.028Z,22.20
2019-04-30T19:55:50.176Z,20.93
2019-04-30T19:58:27.707Z,22.00
2019-04-30T20:00:49.893Z,22.50
2019-04-30T20:03:19.795Z,22.47
2019-04-30T20:05:48.647Z,23.20
2019-04-30T20:08:17.234Z,22.43
2019-04-30T20:10:45.813Z,25.03
2019-04-30T20:13:14.356Z,22.17
2019-04-30T20:15:43.007Z,22.73
2019-04-30T20:18:11.526Z,23.93
2019-04-30T20:20:41.752Z,23.17
2019-04-30T20:23:10.015Z,25.57
2019-04-30T20:25:38.747Z,23.47
2019-04-30T20:28:06.945Z,24.70
2019-04-30T20:30:35.524Z,24.83
2019-04-30T20:33:04.206Z,25.50
2019-04-30T20:35:32.706Z,24.77
2019-04-30T20:38:19.497Z,25.87
2019-04-30T20:40:59.622Z,27.93
2019-04-30T20:43:20.090Z,24.90
2019-04-30T20:45:48.348Z,25.60
2019-04-30T20:48:18.723Z,24.77
2019-04-30T20:50:46.874Z,26.93
2019-04-30T20:53:15.408Z,26.57
2019-04-30T20:55:43.664Z,27.53
2019-04-30T20:58:12.242Z,28.47
2019-04-30T21:00:40.819Z,28.57
2019-04-30T21:03:09.803Z,28.57
2019-04-30T21:05:38.249Z,28.53
2019-04-30T21:08:06.449Z,30.37
2019-04-30T21:10:35.022Z,29.13
2019-04-30T21:13:03.555Z,30.10
2019-04-30T21:15:31.717Z,31.27
2019-04-30T21:18:00.225Z,28.83
2019-04-30T21:20:28.871Z,25.90
2019-04-30T21:22:59.484Z,27.50
2019-04-30T21:25:29.205Z,28.17
2019-04-30T21:27:59.699Z,26.53
2019-04-30T21:30:27.575Z,27.67
2019-04-30T21:33:13.753Z,27.33
2019-04-30T21:35:48.611Z,26.57
2019-04-30T21:38:16.510Z,29.07
2019-04-30T21:40:44.701Z,25.60
2019-04-30T21:43:12.934Z,27.60
2019-04-30T21:45:41.459Z,26.30
2019-04-30T21:48:10.279Z,28.05
2019-04-30T21:50:39.705Z,29.50
2019-04-30T21:53:09.847Z,29.75
2019-04-30T21:55:39.786Z,26.57
2019-04-30T21:58:09.590Z,27.70
2019-04-30T22:00:42.384Z,26.50
2019-04-30T22:03:11.456Z,31.60
2019-04-30T22:05:40.194Z,26.10
2019-04-30T22:08:09.207Z,26.15
2019-04-30T22:10:38.169Z,28.95
2019-04-30T22:13:08.774Z,28.17
2019-04-30T22:15:36.967Z,30.40
2019-04-30T22:18:05.894Z,29.92
2019-04-30T22:20:34.168Z,26.70
2019-04-30T22:23:02.955Z,27.42
2019-04-30T22:25:31.777Z,29.42
2019-04-30T22:28:00.636Z,30.25
2019-04-30T22:30:29.194Z,28.60
2019-04-30T22:32:59.479Z,28.25
2019-04-30T22:35:29.958Z,26.82
2019-04-30T22:38:00.482Z,29.70
2019-04-30T22:40:31.634Z,27.90
2019-04-30T22:42:59.955Z,28.40
2019-04-30T22:45:30.486Z,27.13
2019-04-30T22:47:59.010Z,37.73
2019-04-30T22:50:27.970Z,27.37
2019-04-30T22:52:56.500Z,28.98
2019-04-30T22:55:25.331Z,30.72
2019-04-30T22:57:53.982Z,31.10
2019-04-30T23:00:24.816Z,29.37
2019-04-30T23:02:55.243Z,28.20
2019-04-30T23:05:24.197Z,25.97
2019-04-30T23:07:52.732Z,29.20
2019-04-30T23:10:21.422Z,40.33
2019-04-30T23:12:52.525Z,36.68
2019-04-30T23:15:21.784Z,30.80
2019-04-30T23:17:52.422Z,30.23
2019-04-30T23:20:21.391Z,31.30
2019-04-30T23:22:50.220Z,30.02
2019-04-30T23:25:19.082Z,30.85
2019-04-30T23:27:48.039Z,29.05
2019-04-30T23:30:24.527Z,31.25
2019-04-30T23:32:50.682Z,31.75
2019-04-30T23:35:19.615Z,32.40
2019-04-30T23:37:48.583Z,32.88
2019-04-30T23:40:25.188Z,37.63
2019-04-30T23:42:53.983Z,30.82
2019-04-30T23:45:22.638Z,32.15
2019-04-30T23:47:51.659Z,31.93
2019-04-30T23:50:20.663Z,31.27
2019-04-30T23:52:49.561Z,31.80
2019-04-30T23:55:18.423Z,31.05
2019-04-30T23:57:47.025Z,30.90
